Time;durP1;ratioP1;P1;durP2;ratioP2;P2;SDS_P1;SDS_P2;PMS_P1;PMS_P2;Temp;Humidity;BMP_temperature;BMP_pressure;BME280_temperature;BME280_humidity;BME280_pressure;Samples;Min_cycle;Max_cycle;Signal;HPM_P1;HPM_P2
2021/01/02 00:02:45;;;;;;;44.80;20.67;;;3.90;99.90;;;;;;5066789;28;20224;-60
2021/01/02 00:05:13;;;;;;;40.80;19.87;;;3.90;99.90;;;;;;5066324;28;20198;-61
2021/01/02 00:08:12;;;;;;;41.23;20.77;;;3.90;99.90;;;;;;5065522;28;20199;-60
2021/01/02 00:11:15;;;;;;;39.97;19.97;;;3.90;99.90;;;;;;5065274;28;20332;-62
2021/01/02 00:14:10;;;;;;;41.03;19.30;;;3.90;99.90;;;;;;5068578;28;20212;-62
2021/01/02 00:17:01;;;;;;;43.30;20.53;;;3.80;99.90;;;;;;5069717;28;20680;-63
2021/01/02 00:19:43;;;;;;;41.23;20.53;;;3.80;99.90;;;;;;5052650;28;20594;-61
2021/01/02 00:22:11;;;;;;;39.43;20.30;;;3.90;99.90;;;;;;5068977;28;20232;-61
2021/01/02 00:24:42;;;;;;;42.73;19.90;;;3.90;99.90;;;;;;5069277;28;20637;-61
2021/01/02 00:27:14;;;;;;;39.80;18.60;;;3.90;99.90;;;;;;5070351;28;20202;-62
2021/01/02 00:30:07;;;;;;;39.43;18.30;;;4.00;99.90;;;;;;5067871;28;20195;-60
2021/01/02 00:32:58;;;;;;;37.37;18.93;;;3.90;99.90;;;;;;5068356;28;20224;-63
2021/01/02 00:35:26;;;;;;;41.10;18.00;;;3.90;99.90;;;;;;5064175;28;20746;-63
2021/01/02 00:38:01;;;;;;;37.77;18.13;;;3.90;99.90;;;;;;5067153;28;20226;-62
2021/01/02 00:40:28;;;;;;;39.37;18.17;;;3.90;99.90;;;;;;5069130;28;20208;-61
2021/01/02 00:42:54;;;;;;;40.97;18.73;;;3.90;99.90;;;;;;5066565;28;20222;-63
2021/01/02 00:45:23;;;;;;;37.97;19.40;;;3.90;99.90;;;;;;5067661;28;20577;-62
2021/01/02 00:47:50;;;;;;;39.03;19.63;;;3.90;99.90;;;;;;5067020;28;20198;-63
2021/01/02 00:50:17;;;;;;;41.33;19.50;;;3.80;99.90;;;;;;5066131;28;20194;-60
2021/01/02 00:53:14;;;;;;;39.17;19.00;;;3.80;99.90;;;;;;5067100;28;20218;-63
2021/01/02 00:55:57;;;;;;;41.03;19.10;;;3.90;99.90;;;;;;5067409;28;20198;-62
2021/01/02 00:58:39;;;;;;;36.10;17.90;;;3.80;99.90;;;;;;5068783;28;20217;-61
2021/01/02 01:01:13;;;;;;;36.77;18.73;;;3.90;99.90;;;;;;5069493;28;20202;-62
2021/01/02 01:04:09;;;;;;;41.50;19.60;;;3.90;99.90;;;;;;5066579;28;20829;-61
2021/01/02 01:06:38;;;;;;;38.27;18.23;;;3.80;99.90;;;;;;5067398;28;20202;-62
2021/01/02 01:09:06;;;;;;;39.17;20.43;;;3.80;99.90;;;;;;5068518;28;20210;-62
2021/01/02 01:11:35;;;;;;;40.63;20.23;;;3.80;99.90;;;;;;5067076;28;20416;-62
2021/01/02 01:14:04;;;;;;;39.53;19.30;;;3.80;99.90;;;;;;5065976;28;20607;-61
2021/01/02 01:16:39;;;;;;;37.77;20.07;;;3.80;99.90;;;;;;5069480;28;20230;-61
2021/01/02 01:19:08;;;;;;;38.87;18.07;;;3.80;99.90;;;;;;5068919;28;20226;-60
2021/01/02 01:21:36;;;;;;;39.50;19.33;;;3.80;99.90;;;;;;5066514;28;20218;-62
2021/01/02 01:24:12;;;;;;;39.03;19.63;;;3.80;99.90;;;;;;5065838;28;20708;-57
2021/01/02 01:27:05;;;;;;;37.40;18.93;;;3.90;99.90;;;;;;5063627;28;20666;-62
2021/01/02 01:29:41;;;;;;;39.27;18.97;;;3.80;99.90;;;;;;5066325;28;20226;-63
2021/01/02 01:32:09;;;;;;;35.63;19.00;;;3.80;99.90;;;;;;5066693;28;20335;-62
2021/01/02 01:34:36;;;;;;;40.07;18.97;;;3.80;99.90;;;;;;5066520;28;20209;-62
2021/01/02 01:37:05;;;;;;;38.93;19.20;;;3.80;99.90;;;;;;5069581;28;20216;-62
2021/01/02 01:39:32;;;;;;;37.73;18.50;;;3.70;99.90;;;;;;5065218;28;20244;-62
2021/01/02 01:42:00;;;;;;;41.90;19.87;;;3.70;99.90;;;;;;5066844;28;20229;-62
2021/01/02 01:44:53;;;;;;;38.13;19.30;;;3.60;99.90;;;;;;5068303;28;20199;-62
2021/01/02 01:47:22;;;;;;;39.23;19.93;;;3.60;99.90;;;;;;5068982;28;20206;-61
2021/01/02 01:50:15;;;;;;;46.00;21.40;;;3.60;99.90;;;;;;5065156;28;20198;-62
2021/01/02 01:53:08;;;;;;;39.53;19.90;;;3.50;99.90;;;;;;5066433;28;20222;-62
2021/01/02 01:55:50;;;;;;;40.63;20.53;;;3.40;99.90;;;;;;5067591;28;20198;-61
2021/01/02 01:58:20;;;;;;;38.43;19.80;;;3.40;99.90;;;;;;5068035;28;20229;-63
2021/01/02 02:00:49;;;;;;;41.57;20.00;;;3.30;99.90;;;;;;5067892;28;20195;-62
2021/01/02 02:03:23;;;;;;;44.43;21.90;;;3.30;99.90;;;;;;5067707;28;20309;-60
2021/01/02 02:05:53;;;;;;;37.57;19.70;;;3.20;99.90;;;;;;5069972;28;20201;-62
2021/01/02 02:08:40;;;;;;;39.80;19.47;;;3.10;99.90;;;;;;5069562;28;20570;-62
2021/01/02 02:11:06;;;;;;;37.70;18.33;;;3.10;99.90;;;;;;5072449;28;20214;-61
2021/01/02 02:13:43;;;;;;;33.33;17.83;;;2.90;99.90;;;;;;5074480;28;20857;-61
2021/01/02 02:16:11;;;;;;;37.33;18.47;;;2.90;99.90;;;;;;5072752;28;20210;-61
2021/01/02 02:18:44;;;;;;;37.93;19.23;;;2.70;99.90;;;;;;5075637;28;20213;-62
2021/01/02 02:21:12;;;;;;;37.57;17.60;;;2.70;99.90;;;;;;5070979;28;20285;-60
2021/01/02 02:23:42;;;;;;;42.73;20.23;;;2.50;99.90;;;;;;5072815;28;20285;-62
2021/01/02 02:26:27;;;;;;;39.87;19.50;;;2.50;99.90;;;;;;5068001;28;20621;-61
2021/01/02 02:29:24;;;;;;;37.93;19.53;;;2.50;99.90;;;;;;5071136;28;20197;-63
2021/01/02 02:31:55;;;;;;;38.57;19.00;;;2.50;99.90;;;;;;5072321;28;20600;-62
2021/01/02 02:34:23;;;;;;;40.90;19.07;;;2.40;99.90;;;;;;5072663;28;20198;-62
2021/01/02 02:36:50;;;;;;;37.17;18.50;;;2.30;99.90;;;;;;5063096;28;20203;-58
2021/01/02 02:39:16;;;;;;;41.70;20.47;;;2.30;99.90;;;;;;5069834;28;20222;-60
2021/01/02 02:41:45;;;;;;;40.30;19.83;;;2.50;99.90;;;;;;5072120;28;20325;-62
2021/01/02 02:44:12;;;;;;;35.43;17.87;;;2.50;99.90;;;;;;5072597;28;20240;-60
2021/01/02 02:46:43;;;;;;;39.93;18.90;;;2.40;99.90;;;;;;5070792;28;20202;-62
2021/01/02 02:49:12;;;;;;;38.53;18.57;;;2.50;99.90;;;;;;5074120;28;20202;-62
2021/01/02 02:51:47;;;;;;;40.07;20.27;;;2.50;99.90;;;;;;5071927;28;20245;-62
2021/01/02 02:54:14;;;;;;;41.00;19.70;;;2.60;99.90;;;;;;5069600;28;20568;-60
2021/01/02 02:56:40;;;;;;;39.93;20.57;;;2.60;99.90;;;;;;5071202;28;20267;-62
2021/01/02 02:59:06;;;;;;;38.87;19.40;;;2.60;99.90;;;;;;5072592;28;20232;-62
2021/01/02 03:01:33;;;;;;;45.20;20.17;;;2.80;99.90;;;;;;5132843;22;20231;-57
2021/01/02 03:03:59;;;;;;;41.90;20.10;;;2.80;99.90;;;;;;5042840;28;20218;-56
2021/01/02 03:06:30;;;;;;;38.17;19.13;;;2.90;99.90;;;;;;5047061;28;20206;-57
2021/01/02 03:08:58;;;;;;;40.20;20.27;;;2.90;99.90;;;;;;5053239;28;20191;-57
2021/01/02 03:11:25;;;;;;;39.53;20.10;;;2.90;99.90;;;;;;5052773;28;20223;-57
2021/01/02 03:13:52;;;;;;;44.60;22.10;;;2.90;99.90;;;;;;5052883;28;20199;-57
2021/01/02 03:16:19;;;;;;;43.63;21.53;;;2.90;99.90;;;;;;5052904;28;20670;-59
2021/01/02 03:18:45;;;;;;;42.63;20.73;;;2.90;99.90;;;;;;5053096;28;20233;-59
2021/01/02 03:21:11;;;;;;;39.47;18.53;;;2.90;99.90;;;;;;5052133;28;20223;-58
2021/01/02 03:23:44;;;;;;;43.03;21.00;;;2.90;99.90;;;;;;5049935;28;20218;-56
2021/01/02 03:26:11;;;;;;;42.30;21.57;;;2.90;99.90;;;;;;5051484;28;20210;-58
2021/01/02 03:28:38;;;;;;;41.90;20.63;;;2.90;99.90;;;;;;5051652;28;20203;-56
2021/01/02 03:31:04;;;;;;;43.80;21.23;;;2.90;99.90;;;;;;5051901;28;20442;-56
2021/01/02 03:33:31;;;;;;;43.77;21.50;;;2.90;99.90;;;;;;5051008;28;20200;-59
2021/01/02 03:36:01;;;;;;;41.47;21.63;;;2.90;99.90;;;;;;5052725;28;20199;-55
2021/01/02 03:38:33;;;;;;;42.83;20.93;;;2.90;99.90;;;;;;5052547;28;20225;-58
2021/01/02 03:41:00;;;;;;;43.33;20.70;;;2.90;99.90;;;;;;5047749;28;20222;-59
2021/01/02 03:43:27;;;;;;;44.77;20.67;;;2.90;99.90;;;;;;5051675;28;20207;-56
2021/01/02 03:45:54;;;;;;;44.70;21.83;;;2.80;99.90;;;;;;5052080;28;20688;-54
2021/01/02 03:48:21;;;;;;;42.97;20.70;;;2.80;99.90;;;;;;5042749;28;20658;-57
2021/01/02 03:50:48;;;;;;;44.23;21.70;;;2.80;99.90;;;;;;5048254;28;20210;-58
2021/01/02 03:53:14;;;;;;;47.43;23.03;;;2.70;99.90;;;;;;5050796;28;20223;-57
2021/01/02 03:55:41;;;;;;;45.47;21.87;;;2.60;99.90;;;;;;5051940;28;20249;-59
2021/01/02 03:58:08;;;;;;;46.43;22.63;;;2.60;99.90;;;;;;5051881;28;20634;-60
2021/01/02 04:00:35;;;;;;;43.20;21.77;;;2.40;99.90;;;;;;5051036;28;20203;-56
2021/01/02 04:03:01;;;;;;;44.83;22.10;;;2.30;99.90;;;;;;5051775;28;20656;-56
2021/01/02 04:05:27;;;;;;;43.80;19.53;;;2.40;99.90;;;;;;5052093;28;20211;-61
2021/01/02 04:07:54;;;;;;;42.27;21.57;;;2.20;99.90;;;;;;5052007;28;20199;-55
2021/01/02 04:10:21;;;;;;;42.77;20.13;;;2.20;99.90;;;;;;5050058;28;20207;-54
2021/01/02 04:12:47;;;;;;;45.83;22.97;;;2.10;99.90;;;;;;5051873;28;20215;-53
2021/01/02 04:15:13;;;;;;;44.43;22.17;;;2.10;99.90;;;;;;5049917;28;20203;-56
2021/01/02 04:17:40;;;;;;;44.37;21.47;;;2.10;99.90;;;;;;5050624;28;20572;-55
2021/01/02 04:20:07;;;;;;;42.27;22.27;;;1.90;99.90;;;;;;5050426;28;20237;-54
2021/01/02 04:22:34;;;;;;;39.50;20.63;;;1.80;99.90;;;;;;5051383;28;20223;-58
2021/01/02 04:25:00;;;;;;;41.13;20.23;;;1.70;99.90;;;;;;5050487;28;20210;-57
2021/01/02 04:27:27;;;;;;;42.07;21.53;;;1.70;99.90;;;;;;5049955;28;20314;-57
2021/01/02 04:29:53;;;;;;;40.63;19.93;;;1.80;99.90;;;;;;5049540;28;20195;-54
2021/01/02 04:32:19;;;;;;;40.90;22.00;;;1.70;99.90;;;;;;5050022;28;20253;-54
2021/01/02 04:34:47;;;;;;;41.97;20.83;;;1.80;99.90;;;;;;5049416;28;20211;-57
2021/01/02 04:37:13;;;;;;;43.27;22.10;;;1.90;99.90;;;;;;5049747;28;20209;-55
2021/01/02 04:39:40;;;;;;;43.27;21.50;;;2.00;99.90;;;;;;5049460;28;20723;-57
2021/01/02 04:42:07;;;;;;;45.37;22.50;;;2.10;99.90;;;;;;5049685;28;20222;-57
2021/01/02 04:44:33;;;;;;;46.03;23.07;;;2.10;99.90;;;;;;5046120;28;20211;-54
2021/01/02 04:47:03;;;;;;;43.43;20.97;;;2.20;99.90;;;;;;5047744;28;20199;-59
2021/01/02 04:49:29;;;;;;;44.13;22.07;;;2.30;99.90;;;;;;5048133;28;20199;-54
2021/01/02 04:52:01;;;;;;;41.63;21.13;;;2.40;99.90;;;;;;5049813;28;20233;-53
2021/01/02 04:54:27;;;;;;;37.87;19.63;;;2.50;99.90;;;;;;5049006;28;20290;-54
2021/01/02 04:56:54;;;;;;;40.67;19.80;;;2.40;99.90;;;;;;5048708;28;20492;-54
2021/01/02 04:59:26;;;;;;;39.97;20.27;;;2.30;99.90;;;;;;5049495;28;20557;-57
2021/01/02 05:01:53;;;;;;;38.37;19.70;;;2.30;99.90;;;;;;5043222;28;20227;-54
2021/01/02 05:04:20;;;;;;;39.60;20.70;;;2.40;99.90;;;;;;5045281;28;20199;-58
2021/01/02 05:06:46;;;;;;;38.03;20.07;;;2.50;99.90;;;;;;5047822;28;20210;-58
2021/01/02 05:09:13;;;;;;;38.70;19.90;;;2.40;99.90;;;;;;5050545;28;20252;-58
2021/01/02 05:11:40;;;;;;;39.53;20.47;;;2.50;99.90;;;;;;5045922;28;20223;-58
2021/01/02 05:14:07;;;;;;;39.67;20.27;;;2.50;99.90;;;;;;5042884;28;20222;-55
2021/01/02 05:16:35;;;;;;;40.17;20.43;;;2.50;99.90;;;;;;5047120;28;20198;-54
2021/01/02 05:19:05;;;;;;;40.03;20.57;;;2.40;99.90;;;;;;5047026;28;20227;-58
2021/01/02 05:21:32;;;;;;;39.80;19.43;;;2.40;99.90;;;;;;5049721;28;20275;-57
2021/01/02 05:24:19;;;;;;;36.80;19.67;;;2.10;99.90;;;;;;5048233;28;20199;-57
2021/01/02 05:26:46;;;;;;;40.43;20.83;;;2.20;99.90;;;;;;5047968;28;20203;-56
2021/01/02 05:29:18;;;;;;;39.47;19.20;;;2.30;99.90;;;;;;5049675;28;20261;-56
2021/01/02 05:31:47;;;;;;;39.20;18.73;;;2.10;99.90;;;;;;5049839;28;20222;-58
2021/01/02 05:34:15;;;;;;;40.70;19.87;;;2.10;99.90;;;;;;5045824;28;20209;-57
2021/01/02 05:36:42;;;;;;;38.20;18.83;;;2.20;99.90;;;;;;5050971;28;20209;-56
2021/01/02 05:39:10;;;;;;;38.33;19.33;;;2.20;99.90;;;;;;5045621;28;20651;-57
2021/01/02 05:41:52;;;;;;;39.43;19.93;;;2.20;99.90;;;;;;5049216;28;20590;-58
2021/01/02 05:44:19;;;;;;;40.43;20.00;;;2.30;99.90;;;;;;5048957;28;20211;-58
2021/01/02 05:46:47;;;;;;;39.63;18.97;;;2.10;99.90;;;;;;5050635;28;20352;-56
2021/01/02 05:49:34;;;;;;;38.30;19.20;;;2.10;99.90;;;;;;5050327;28;20246;-59
2021/01/02 05:52:02;;;;;;;35.80;18.80;;;2.00;99.90;;;;;;5050676;28;20222;-55
2021/01/02 05:54:29;;;;;;;38.03;17.57;;;1.90;99.90;;;;;;5049779;28;20207;-54
2021/01/02 05:56:59;;;;;;;35.73;18.10;;;1.80;99.90;;;;;;5052566;28;20599;-56
2021/01/02 05:59:36;;;;;;;38.23;18.07;;;1.80;99.90;;;;;;5053529;28;20223;-57
2021/01/02 06:02:25;;;;;;;40.70;18.87;;;1.80;99.90;;;;;;5046847;28;20237;-55
2021/01/02 06:04:59;;;;;;;42.00;19.37;;;1.80;99.90;;;;;;5044745;28;20199;-55
2021/01/02 06:07:26;;;;;;;37.10;18.50;;;1.70;99.90;;;;;;5049061;28;20481;-54
2021/01/02 06:09:53;;;;;;;37.30;19.17;;;1.50;99.90;;;;;;5053467;28;20680;-53
2021/01/02 06:12:26;;;;;;;40.17;19.67;;;1.50;99.90;;;;;;5052321;28;20219;-57
2021/01/02 06:14:54;;;;;;;38.00;17.97;;;1.50;99.90;;;;;;5053139;28;20199;-53
2021/01/02 06:17:27;;;;;;;37.00;19.20;;;1.50;99.90;;;;;;5052717;28;20199;-53
2021/01/02 06:19:54;;;;;;;37.57;19.07;;;1.50;99.90;;;;;;5054117;28;20295;-59
2021/01/02 06:22:21;;;;;;;37.40;18.50;;;1.40;99.90;;;;;;5053007;28;20222;-54
2021/01/02 06:24:49;;;;;;;39.03;19.90;;;1.50;99.90;;;;;;5053398;28;20199;-52
2021/01/02 06:27:16;;;;;;;36.83;18.07;;;1.50;99.90;;;;;;5053424;28;20674;-55
2021/01/02 06:29:48;;;;;;;42.03;18.77;;;1.60;99.90;;;;;;5053419;28;20198;-55
2021/01/02 06:32:14;;;;;;;39.80;18.83;;;1.70;99.90;;;;;;5053213;28;20250;-56
2021/01/02 06:34:40;;;;;;;42.10;19.07;;;1.80;99.90;;;;;;5050924;28;20233;-55
2021/01/02 06:37:07;;;;;;;45.57;20.30;;;1.80;99.90;;;;;;5051824;28;20560;-54
2021/01/02 06:39:34;;;;;;;40.50;20.43;;;2.00;99.90;;;;;;5051820;28;20237;-54
2021/01/02 06:42:01;;;;;;;39.77;19.30;;;2.00;99.90;;;;;;5053031;28;20231;-53
2021/01/02 06:44:42;;;;;;;41.87;19.63;;;2.00;99.90;;;;;;5053108;28;20213;-54
2021/01/02 06:47:32;;;;;;;44.00;20.27;;;2.00;99.90;;;;;;5053066;28;20211;-57
2021/01/02 06:50:15;;;;;;;40.43;19.67;;;2.20;99.90;;;;;;5049063;28;20203;-53
2021/01/02 06:52:42;;;;;;;37.03;18.50;;;2.20;99.90;;;;;;5047781;28;20230;-54
2021/01/02 06:55:25;;;;;;;39.33;19.73;;;2.20;99.90;;;;;;5052803;28;20207;-56
2021/01/02 06:57:52;;;;;;;42.73;20.07;;;2.20;99.90;;;;;;5049117;28;20205;-53
2021/01/02 07:00:23;;;;;;;38.33;18.93;;;2.20;99.90;;;;;;5052179;28;20681;-57
2021/01/02 07:02:50;;;;;;;38.30;19.87;;;2.10;99.90;;;;;;5052057;28;20231;-54
2021/01/02 07:05:47;;;;;;;38.40;19.50;;;2.20;99.90;;;;;;5052668;28;20202;-56
2021/01/02 07:08:41;;;;;;;40.03;18.67;;;2.30;99.90;;;;;;5051544;28;20207;-53
2021/01/02 07:11:23;;;;;;;36.97;18.70;;;2.30;99.90;;;;;;5046397;28;20234;-54
2021/01/02 07:13:50;;;;;;;35.40;18.03;;;2.30;99.90;;;;;;5050624;28;20699;-52
2021/01/02 07:16:29;;;;;;;38.67;19.47;;;2.30;99.90;;;;;;5053292;28;20203;-53
2021/01/02 07:18:56;;;;;;;40.70;18.67;;;2.40;99.90;;;;;;5050145;28;20222;-53
2021/01/02 07:21:35;;;;;;;41.37;19.93;;;2.40;99.90;;;;;;5052067;28;20226;-53
2021/01/02 07:24:21;;;;;;;38.70;19.43;;;2.40;99.90;;;;;;5050861;28;20206;-58
2021/01/02 07:26:47;;;;;;;40.13;18.80;;;2.50;99.90;;;;;;5050081;28;20244;-54
2021/01/02 07:29:18;;;;;;;38.50;19.73;;;2.50;99.90;;;;;;5052761;28;20199;-52
2021/01/02 07:31:44;;;;;;;42.77;20.13;;;2.60;99.90;;;;;;5052205;28;20562;-54
2021/01/02 07:34:18;;;;;;;44.77;20.17;;;2.70;99.90;;;;;;5052442;28;20207;-53
2021/01/02 07:36:45;;;;;;;40.83;19.77;;;2.90;99.90;;;;;;5048418;28;20554;-53
2021/01/02 07:39:11;;;;;;;37.93;19.23;;;2.90;99.90;;;;;;5052334;28;20316;-56
2021/01/02 07:41:39;;;;;;;38.87;19.87;;;2.90;99.90;;;;;;5051827;28;20284;-55
2021/01/02 07:44:06;;;;;;;38.47;18.60;;;3.00;99.90;;;;;;5052684;28;20203;-55
2021/01/02 07:46:34;;;;;;;40.07;20.57;;;3.00;99.90;;;;;;5048553;28;20244;-55
2021/01/02 07:49:00;;;;;;;37.23;19.03;;;3.10;99.90;;;;;;5048594;28;20628;-58
2021/01/02 07:51:28;;;;;;;38.53;18.80;;;3.20;99.90;;;;;;5050641;28;20273;-55
2021/01/02 07:53:55;;;;;;;39.80;19.37;;;3.30;99.90;;;;;;5050794;28;20195;-53
2021/01/02 07:56:38;;;;;;;40.47;19.07;;;3.30;99.90;;;;;;5052355;28;20223;-54
2021/01/02 07:59:24;;;;;;;39.47;19.33;;;3.30;99.90;;;;;;5042995;28;20214;-56
2021/01/02 08:01:52;;;;;;;43.77;20.13;;;3.30;99.90;;;;;;5051728;28;20234;-54
2021/01/02 08:04:20;;;;;;;41.10;20.43;;;3.30;99.90;;;;;;5051434;28;20207;-58
2021/01/02 08:06:48;;;;;;;43.27;20.03;;;3.40;99.90;;;;;;5051534;28;20206;-56
2021/01/02 08:09:15;;;;;;;38.10;19.40;;;3.40;99.90;;;;;;5052057;28;20650;-55
2021/01/02 08:12:00;;;;;;;38.67;19.07;;;3.40;99.90;;;;;;5045914;28;20231;-58
2021/01/02 08:14:30;;;;;;;37.20;19.30;;;3.50;99.90;;;;;;5048124;28;20202;-56
2021/01/02 08:16:58;;;;;;;42.50;19.17;;;3.50;99.90;;;;;;5050435;28;20217;-60
2021/01/02 08:19:24;;;;;;;35.43;19.60;;;3.40;99.90;;;;;;5051585;28;20215;-54
2021/01/02 08:21:52;;;;;;;41.07;19.90;;;3.40;99.90;;;;;;5051252;28;20701;-54
2021/01/02 08:24:19;;;;;;;39.83;18.37;;;3.50;99.90;;;;;;5050652;28;20260;-57
2021/01/02 08:26:46;;;;;;;40.13;19.47;;;3.50;99.90;;;;;;5050939;28;20649;-55
2021/01/02 08:29:12;;;;;;;40.23;19.30;;;3.60;99.90;;;;;;5051060;28;20191;-59
2021/01/02 08:31:45;;;;;;;42.77;19.30;;;3.60;99.90;;;;;;5046569;28;20233;-57
2021/01/02 08:34:15;;;;;;;37.37;18.00;;;3.70;99.90;;;;;;5050509;28;20214;-58
2021/01/02 08:36:42;;;;;;;43.20;21.20;;;3.70;99.90;;;;;;5048927;28;20198;-56
2021/01/02 08:39:10;;;;;;;37.83;18.20;;;3.60;99.90;;;;;;5048907;28;20234;-57
2021/01/02 08:41:37;;;;;;;36.47;19.13;;;3.70;99.90;;;;;;5049978;28;20225;-57
2021/01/02 08:44:04;;;;;;;38.33;19.23;;;3.70;99.90;;;;;;5049932;28;20239;-55
2021/01/02 08:46:30;;;;;;;38.47;18.30;;;3.80;99.90;;;;;;5050827;28;20245;-55
2021/01/02 08:48:57;;;;;;;37.07;19.40;;;3.80;99.90;;;;;;5050774;28;20545;-59
2021/01/02 08:51:24;;;;;;;36.13;19.17;;;3.80;99.90;;;;;;5050804;28;20219;-59
2021/01/02 08:53:51;;;;;;;37.07;19.23;;;3.90;99.90;;;;;;5050733;28;20557;-59
2021/01/02 08:56:25;;;;;;;38.77;19.57;;;3.90;99.90;;;;;;5050959;28;20207;-58
2021/01/02 08:58:52;;;;;;;35.03;18.13;;;3.90;99.90;;;;;;5050903;28;20253;-58
2021/01/02 09:01:18;;;;;;;38.53;19.83;;;4.00;99.90;;;;;;5043900;28;20234;-57
2021/01/02 09:03:45;;;;;;;38.17;18.30;;;4.00;99.90;;;;;;5120523;22;20234;-62
2021/01/02 09:06:19;;;;;;;34.77;17.97;;;4.10;99.90;;;;;;5077514;28;20228;-63
2021/01/02 09:08:46;;;;;;;34.43;17.73;;;4.20;99.90;;;;;;5085143;28;20194;-62
2021/01/02 09:11:12;;;;;;;38.93;19.03;;;4.20;99.90;;;;;;5074900;28;20253;-63
2021/01/02 09:13:39;;;;;;;37.07;18.23;;;4.20;99.90;;;;;;5094373;28;20640;-62
2021/01/02 09:16:14;;;;;;;36.07;18.17;;;4.20;99.90;;;;;;5110116;28;20705;-61
2021/01/02 09:18:44;;;;;;;38.87;18.90;;;4.20;99.90;;;;;;5103071;28;20213;-61
2021/01/02 09:21:25;;;;;;;40.27;19.20;;;4.30;99.90;;;;;;5106231;28;20197;-63
2021/01/02 09:23:53;;;;;;;36.07;18.17;;;4.30;99.90;;;;;;5102386;28;20217;-61
2021/01/02 09:26:37;;;;;;;37.60;17.47;;;4.30;99.90;;;;;;5108609;28;20239;-61
2021/01/02 09:29:14;;;;;;;33.23;17.17;;;4.30;99.90;;;;;;5099288;28;20200;-63
2021/01/02 09:31:40;;;;;;;36.20;17.80;;;4.40;99.90;;;;;;5107618;28;20203;-63
2021/01/02 09:34:07;;;;;;;37.00;17.97;;;4.40;99.90;;;;;;5107935;28;20225;-62
2021/01/02 09:36:34;;;;;;;35.87;17.90;;;4.40;99.90;;;;;;5105798;28;20197;-62
2021/01/02 09:39:01;;;;;;;35.40;17.80;;;4.40;99.90;;;;;;5111481;28;20224;-61
2021/01/02 09:41:28;;;;;;;36.20;17.50;;;4.50;99.90;;;;;;5106136;28;20698;-62
2021/01/02 09:43:56;;;;;;;37.53;16.90;;;4.50;99.90;;;;;;5107312;28;20261;-62
2021/01/02 09:46:24;;;;;;;38.47;18.60;;;4.50;99.90;;;;;;5106650;28;20718;-62
2021/01/02 09:48:52;;;;;;;34.63;17.57;;;4.60;99.90;;;;;;5110177;28;20280;-62
2021/01/02 09:51:20;;;;;;;38.80;18.97;;;4.70;99.90;;;;;;5113407;28;20201;-62
2021/01/02 09:53:46;;;;;;;38.50;18.20;;;4.70;99.90;;;;;;5104520;28;20221;-63
2021/01/02 09:56:13;;;;;;;36.50;18.23;;;4.70;99.90;;;;;;5095065;28;20215;-63
2021/01/02 09:58:42;;;;;;;36.23;17.87;;;4.70;99.90;;;;;;5097796;28;20193;-61
2021/01/02 10:01:08;;;;;;;34.77;18.00;;;4.70;99.90;;;;;;5095838;28;20575;-62
2021/01/02 10:03:35;;;;;;;39.07;18.17;;;4.60;99.90;;;;;;5098205;28;20236;-62
2021/01/02 10:06:01;;;;;;;36.00;18.07;;;4.60;99.90;;;;;;5105996;28;20208;-62
2021/01/02 10:08:27;;;;;;;32.80;17.03;;;4.60;99.90;;;;;;5102195;28;20201;-59
2021/01/02 10:10:54;;;;;;;35.37;17.67;;;4.70;99.90;;;;;;5114029;28;20199;-62
2021/01/02 10:13:20;;;;;;;34.77;17.67;;;4.60;99.90;;;;;;5101575;28;20222;-61
2021/01/02 10:15:48;;;;;;;36.97;18.00;;;4.80;99.90;;;;;;5115112;28;20197;-60
2021/01/02 10:18:15;;;;;;;37.27;18.07;;;4.90;99.90;;;;;;5109782;28;20220;-61
2021/01/02 10:20:41;;;;;;;35.80;18.20;;;5.00;99.90;;;;;;5103591;28;20594;-60
2021/01/02 10:23:08;;;;;;;36.93;18.70;;;5.10;99.90;;;;;;5102663;28;20224;-59
2021/01/02 10:25:35;;;;;;;37.43;18.87;;;5.30;99.90;;;;;;5113261;28;20708;-62
2021/01/02 10:28:01;;;;;;;33.47;17.90;;;5.40;99.90;;;;;;5107676;28;20652;-60
2021/01/02 10:30:28;;;;;;;37.37;18.93;;;5.90;99.90;;;;;;5104413;28;20201;-61
2021/01/02 10:32:55;;;;;;;35.33;17.60;;;5.90;99.90;;;;;;5110490;28;20213;-61
2021/01/02 10:35:21;;;;;;;36.13;18.90;;;5.80;99.90;;;;;;5107136;28;20581;-62
2021/01/02 10:37:49;;;;;;;36.70;17.73;;;5.70;99.90;;;;;;5110170;28;20197;-61
2021/01/02 10:40:16;;;;;;;35.63;18.47;;;5.70;99.90;;;;;;5110973;28;20221;-60
2021/01/02 10:42:43;;;;;;;34.20;17.50;;;5.70;99.90;;;;;;5097468;28;20221;-63
2021/01/02 10:45:12;;;;;;;36.53;18.83;;;5.60;99.90;;;;;;5114627;28;20200;-63
2021/01/02 10:47:38;;;;;;;30.97;16.77;;;5.60;99.90;;;;;;5100114;28;20214;-62
2021/01/02 10:50:07;;;;;;;36.17;17.87;;;5.60;99.90;;;;;;5111025;28;20205;-62
2021/01/02 10:52:34;;;;;;;36.23;18.23;;;5.60;99.90;;;;;;5108552;28;20221;-61
2021/01/02 10:55:00;;;;;;;33.90;17.97;;;5.50;99.90;;;;;;5109954;28;20217;-62
2021/01/02 10:57:27;;;;;;;34.33;17.57;;;5.50;99.90;;;;;;5105580;28;20698;-62
2021/01/02 10:59:55;;;;;;;36.97;18.00;;;5.40;99.90;;;;;;5103376;28;20217;-62
2021/01/02 11:02:22;;;;;;;36.90;18.30;;;5.40;99.90;;;;;;5109940;28;20221;-62
2021/01/02 11:04:48;;;;;;;35.60;17.67;;;5.30;99.90;;;;;;5108190;28;20198;-62
2021/01/02 11:07:16;;;;;;;36.27;17.03;;;5.30;99.90;;;;;;5105000;28;20209;-60
2021/01/02 11:09:44;;;;;;;34.97;18.43;;;5.30;99.90;;;;;;5097451;28;20277;-61
2021/01/02 11:12:11;;;;;;;32.33;16.37;;;5.50;99.90;;;;;;5105852;28;20573;-61
2021/01/02 11:14:39;;;;;;;34.30;18.27;;;5.50;99.90;;;;;;5108396;28;20215;-63
2021/01/02 11:17:06;;;;;;;36.20;17.17;;;5.60;99.90;;;;;;5101140;28;20288;-62
2021/01/02 11:19:33;;;;;;;30.23;15.43;;;5.60;99.90;;;;;;5102914;28;20226;-62
2021/01/02 11:22:02;;;;;;;29.80;14.80;;;5.70;99.90;;;;;;5106002;28;20563;-63
2021/01/02 11:24:31;;;;;;;31.43;16.13;;;5.70;99.90;;;;;;5102480;28;20254;-61
2021/01/02 11:26:59;;;;;;;32.67;15.67;;;5.80;99.90;;;;;;5106084;28;20323;-61
2021/01/02 11:29:28;;;;;;;29.20;15.40;;;5.80;99.90;;;;;;5106646;28;20663;-63
2021/01/02 11:31:55;;;;;;;31.37;15.20;;;5.80;99.90;;;;;;5102478;28;20279;-62
2021/01/02 11:34:22;;;;;;;32.83;16.20;;;5.80;99.90;;;;;;5111570;28;20219;-62
2021/01/02 11:36:50;;;;;;;30.83;14.77;;;5.80;99.90;;;;;;5110597;28;20196;-60
2021/01/02 11:39:17;;;;;;;31.27;15.17;;;5.80;99.90;;;;;;5111238;28;20273;-61
2021/01/02 11:41:45;;;;;;;30.97;15.50;;;5.90;99.90;;;;;;5110940;28;20230;-61
2021/01/02 11:44:14;;;;;;;30.33;15.43;;;5.90;99.90;;;;;;5100677;28;20217;-61
2021/01/02 11:46:43;;;;;;;28.77;14.70;;;5.90;99.90;;;;;;5105040;28;20193;-60
2021/01/02 11:49:12;;;;;;;28.13;14.23;;;5.90;99.90;;;;;;5105843;28;20209;-62
2021/01/02 11:51:39;;;;;;;27.40;14.03;;;5.90;99.90;;;;;;5111937;28;20640;-62
2021/01/02 11:54:06;;;;;;;30.07;14.53;;;5.90;99.90;;;;;;5109908;28;20585;-63
2021/01/02 11:56:32;;;;;;;28.97;14.73;;;6.00;99.90;;;;;;5104908;28;20208;-62
2021/01/02 11:59:01;;;;;;;26.70;14.60;;;6.00;99.90;;;;;;5104118;28;20259;-63
2021/01/02 12:01:34;;;;;;;27.83;14.40;;;6.00;99.90;;;;;;5099886;28;20236;-63
2021/01/02 12:04:01;;;;;;;31.60;16.00;;;6.00;99.90;;;;;;5100949;28;20231;-62
2021/01/02 12:06:29;;;;;;;27.33;13.60;;;6.10;99.90;;;;;;5099435;28;20193;-61
2021/01/02 12:08:56;;;;;;;26.67;14.27;;;6.10;99.90;;;;;;5105564;28;20211;-62
2021/01/02 12:11:27;;;;;;;27.10;14.10;;;6.00;99.90;;;;;;5109654;28;20197;-63
2021/01/02 12:13:54;;;;;;;25.90;12.60;;;6.10;99.90;;;;;;5108433;28;20283;-63
2021/01/02 12:16:28;;;;;;;28.40;14.23;;;6.10;99.90;;;;;;5104397;28;22019;-62
2021/01/02 12:18:55;;;;;;;28.57;13.73;;;6.20;99.90;;;;;;5101729;28;20208;-62
2021/01/02 12:21:21;;;;;;;25.87;12.73;;;6.20;99.90;;;;;;5101583;28;20201;-59
2021/01/02 12:23:48;;;;;;;28.03;13.57;;;6.20;99.90;;;;;;5103170;28;20217;-63
2021/01/02 12:26:14;;;;;;;22.50;12.27;;;6.30;99.90;;;;;;5101937;28;20201;-62
2021/01/02 12:28:44;;;;;;;24.07;12.33;;;6.30;99.90;;;;;;5096881;28;20254;-63
2021/01/02 12:31:15;;;;;;;23.47;11.50;;;6.30;99.90;;;;;;5103921;28;20273;-63
2021/01/02 12:33:43;;;;;;;23.40;12.10;;;6.30;99.90;;;;;;5105645;28;20221;-63
2021/01/02 12:36:10;;;;;;;21.60;11.17;;;6.20;99.90;;;;;;5095268;28;20972;-62
2021/01/02 12:38:38;;;;;;;21.73;11.80;;;6.30;99.90;;;;;;5093526;28;20257;-63
2021/01/02 12:41:04;;;;;;;23.13;10.97;;;6.20;99.90;;;;;;5097876;28;20220;-62
2021/01/02 12:43:30;;;;;;;23.90;11.57;;;6.20;99.90;;;;;;5094099;28;20222;-64
2021/01/02 12:45:57;;;;;;;22.77;11.40;;;6.30;99.90;;;;;;5105610;28;20227;-62
2021/01/02 12:48:24;;;;;;;21.27;10.57;;;6.30;99.90;;;;;;5107840;28;20203;-62
2021/01/02 12:50:53;;;;;;;22.00;10.97;;;6.20;99.90;;;;;;5102006;28;20291;-61
2021/01/02 12:53:19;;;;;;;19.90;10.13;;;6.30;99.90;;;;;;5103516;28;20217;-61